METAR Data
IDs: Format: Raw Decoded Include TAF

Data at: 0134 UTC 29 Nov 2020

METAR for:KSLB (Storm Lake Muni, IA, US)
Text:KSLB 290115Z AUTO 22007KT 10SM CLR 05/M00 A2993 RMK AO2
Temperature: 5.0°C ( 41°F)
Dewpoint: 0.0°C ( 32°F) [RH = 70%]
Pressure (altimeter):29.93 inches Hg (1013.6 mb)
Winds:from the SW (220 degrees) at 8 MPH (7 knots; 3.6 m/s)
Visibility:10 or more sm (16+ km)
Ceiling:at least 12,000 feet AGL
Clouds:sky clear below 12,000 feet AGL
QC Flag:automated observation with no human augmentation